^^

Nearby METAR Reports

 

EGHH - Bournemouth Airp, United Kingdom
Distance from station: S 10mi, 17km
Updated: 19/04/2019 13:20
Clear
Clear
 Wind from ENE
Wind: ENE 9 mph , 15 km/h
Temperature: 23°C
Dew Point: 6°C
Humidity: 33%
Barometer: 1027 hPa
Summary: Clear
Visibility: greater than 7 miles , 10 km
2019/04/19 12:20 EGHH 191220Z 07008KT 020V150 CAVOK 23/06 Q1027
EGDM - Boscombe Down, United Kingdom
Distance from station: N 16mi, 26km
Updated: 19/04/2019 12:50
Clear
Clear
 Wind from E
Wind: E 7 mph , 11 km/h
Temperature: 21°C
Dew Point: 8°C
Humidity: 43%
Barometer: 1028 hPa
Clouds: Clear
Visibility: 6 miles , 10 km
2019/04/19 11:50 EGDM 191150Z AUTO 09006KT 9999 NCD 21/08 Q1028
 
EGVP - Middle Wallop, United Kingdom
Distance from station: NE 17mi, 27km
Updated: 19/04/2019 12:50
Few Clouds
Few Clouds
 Wind from NNE
Wind: NNE 9 mph , 15 km/h
Temperature: 21°C
Dew Point: 8°C
Humidity: 43%
Barometer: 1028 hPa
Clouds: Few Clouds
Visibility: 6 miles , 10 km
Cloud details: Few Clouds 7010 m
2019/04/19 11:50 EGVP 191150Z AUTO 03008KT 9999 // FEW230/// 21/08 Q1028
EGHI - Southampton Wx C, United Kingdom
Distance from station: E 19mi, 31km
Updated: 19/04/2019 13:20
Clear
Clear
 Wind from NNE
Wind: NNE 9 mph , 15 km/h
Temperature: 20°C
Dew Point: 8°C
Humidity: 46%
Barometer: 1028 hPa
Summary: Clear
Visibility: greater than 7 miles , 10 km
2019/04/19 12:20 EGHI 191220Z 03008KT 350V100 CAVOK 20/08 Q1028
 
EGDY - Yeovilton (navy), United Kingdom
Distance from station: W 36mi, 58km
Updated: 19/04/2019 12:50
Clear
Clear
 Wind from NNE
Wind: NNE 7 mph , 11 km/h
Temperature: 19°C
Dew Point: 9°C
Humidity: 52%
Barometer: 1028 hPa
Clouds: Clear
Visibility: 6 miles , 10 km
2019/04/19 11:50 EGDY 191150Z AUTO 03006KT 9999 NCD 19/09 Q1028
EGUO - Colerne Raf, United Kingdom
Distance from station: NNW 41mi, 66km
Updated: 14/02/2019 22:50
NOT Current
Clear
Clear
 Wind from ENE
Wind: ENE 1 mph , 2 km/h
Temperature: 1°C
Dew Point: 0°C
Humidity: 93%
Barometer: 1029 hPa
Summary: Clear
Visibility: greater than 7 miles , 10 km
2019/02/14 22:50 EGUO 142250Z 06001KT CAVOK 01/00 Q1029 BLU NOSIG
 
EGVO - Odiham Raf, United Kingdom
Distance from station: ENE 42mi, 68km
Updated: 19/04/2019 12:50
Clear
Clear
 Wind from NNE
Wind: NNE 10 mph , 17 km/h
Temperature: 21°C
Dew Point: 8°C
Humidity: 43%
Barometer: 1028 hPa
Clouds: Clear
Visibility: 6 miles , 10 km
2019/04/19 11:50 EGVO 191150Z AUTO 03009KT 9999 NCD 21/08 Q1028
EGGD - Bristol/Lulsgate, United Kingdom
Distance from station: NW 50mi, 81km
Updated: 19/04/2019 13:20
Clear
Clear
 Wind from NE
Wind: NE 9 mph , 15 km/h
Temperature: 19°C
Dew Point: 10°C
Humidity: 56%
Barometer: 1029 hPa
Clouds: Clear
Visibility: 6 miles , 10 km
2019/04/19 12:20 EGGD 191220Z AUTO 05008KT 9999 NCD 19/10 Q1029